sensor_id;sensor_type;location;lat;lon;timestamp;P1;durP1;ratioP1;P2;durP2;ratioP2
52744;SDS011;38637;49.984;20.426;2023-07-24T00:01:38;2.20;;;2.00;;
52744;SDS011;38637;49.984;20.426;2023-07-24T00:04:04;3.10;;;2.30;;
52744;SDS011;38637;49.984;20.426;2023-07-24T00:06:29;2.13;;;1.93;;
52744;SDS011;38637;49.984;20.426;2023-07-24T00:08:54;2.67;;;2.00;;
52744;SDS011;38637;49.984;20.426;2023-07-24T00:11:19;4.37;;;1.73;;
52744;SDS011;38637;49.984;20.426;2023-07-24T00:13:45;2.80;;;2.53;;
52744;SDS011;38637;49.984;20.426;2023-07-24T00:16:10;5.40;;;2.10;;
52744;SDS011;38637;49.984;20.426;2023-07-24T00:18:35;4.27;;;2.20;;
52744;SDS011;38637;49.984;20.426;2023-07-24T00:21:01;3.53;;;2.20;;
52744;SDS011;38637;49.984;20.426;2023-07-24T00:23:26;4.28;;;1.90;;
52744;SDS011;38637;49.984;20.426;2023-07-24T00:25:52;3.93;;;2.23;;
52744;SDS011;38637;49.984;20.426;2023-07-24T00:28:18;2.65;;;1.88;;
52744;SDS011;38637;49.984;20.426;2023-07-24T00:30:43;3.73;;;2.10;;
52744;SDS011;38637;49.984;20.426;2023-07-24T00:33:08;4.53;;;2.13;;
52744;SDS011;38637;49.984;20.426;2023-07-24T00:35:34;3.20;;;2.23;;
52744;SDS011;38637;49.984;20.426;2023-07-24T00:37:59;2.30;;;1.90;;
52744;SDS011;38637;49.984;20.426;2023-07-24T00:40:24;2.53;;;1.80;;
52744;SDS011;38637;49.984;20.426;2023-07-24T00:42:50;2.77;;;1.77;;
52744;SDS011;38637;49.984;20.426;2023-07-24T00:45:15;2.47;;;2.27;;
52744;SDS011;38637;49.984;20.426;2023-07-24T00:47:41;3.83;;;2.20;;
52744;SDS011;38637;49.984;20.426;2023-07-24T00:50:07;4.03;;;2.20;;
52744;SDS011;38637;49.984;20.426;2023-07-24T00:52:34;3.38;;;2.17;;
52744;SDS011;38637;49.984;20.426;2023-07-24T00:55:00;3.28;;;2.13;;
52744;SDS011;38637;49.984;20.426;2023-07-24T00:57:26;2.40;;;2.00;;
52744;SDS011;38637;49.984;20.426;2023-07-24T00:59:51;2.27;;;2.07;;
52744;SDS011;38637;49.984;20.426;2023-07-24T01:02:16;2.10;;;1.87;;
52744;SDS011;38637;49.984;20.426;2023-07-24T01:04:42;2.10;;;1.90;;
52744;SDS011;38637;49.984;20.426;2023-07-24T01:07:07;3.77;;;2.43;;
52744;SDS011;38637;49.984;20.426;2023-07-24T01:09:33;2.25;;;2.00;;
52744;SDS011;38637;49.984;20.426;2023-07-24T01:12:01;4.27;;;1.83;;
52744;SDS011;38637;49.984;20.426;2023-07-24T01:14:41;3.90;;;2.20;;
52744;SDS011;38637;49.984;20.426;2023-07-24T01:17:12;3.95;;;2.17;;
52744;SDS011;38637;49.984;20.426;2023-07-24T01:19:48;2.78;;;2.28;;
52744;SDS011;38637;49.984;20.426;2023-07-24T01:27:25;3.47;;;1.90;;
52744;SDS011;38637;49.984;20.426;2023-07-24T01:29:51;3.65;;;1.95;;
52744;SDS011;38637;49.984;20.426;2023-07-24T01:32:17;2.43;;;2.23;;
52744;SDS011;38637;49.984;20.426;2023-07-24T01:34:44;2.85;;;2.00;;
52744;SDS011;38637;49.984;20.426;2023-07-24T01:37:09;2.10;;;1.70;;
52744;SDS011;38637;49.984;20.426;2023-07-24T01:39:37;1.85;;;1.65;;
52744;SDS011;38637;49.984;20.426;2023-07-24T01:42:03;2.97;;;2.13;;
52744;SDS011;38637;49.984;20.426;2023-07-24T01:44:29;2.67;;;2.22;;
52744;SDS011;38637;49.984;20.426;2023-07-24T01:46:55;3.27;;;2.23;;
52744;SDS011;38637;49.984;20.426;2023-07-24T01:49:20;2.30;;;2.10;;
52744;SDS011;38637;49.984;20.426;2023-07-24T01:51:45;3.50;;;2.20;;
52744;SDS011;38637;49.984;20.426;2023-07-24T01:54:11;1.90;;;1.80;;
52744;SDS011;38637;49.984;20.426;2023-07-24T01:56:36;2.37;;;2.17;;
52744;SDS011;38637;49.984;20.426;2023-07-24T01:59:02;1.80;;;1.70;;
52744;SDS011;38637;49.984;20.426;2023-07-24T02:01:27;5.93;;;2.00;;
52744;SDS011;38637;49.984;20.426;2023-07-24T02:03:53;3.07;;;2.10;;
52744;SDS011;38637;49.984;20.426;2023-07-24T02:06:18;3.73;;;2.30;;
52744;SDS011;38637;49.984;20.426;2023-07-24T02:08:43;2.47;;;2.27;;
52744;SDS011;38637;49.984;20.426;2023-07-24T02:11:13;2.28;;;2.05;;
52744;SDS011;38637;49.984;20.426;2023-07-24T02:13:45;2.35;;;1.90;;
52744;SDS011;38637;49.984;20.426;2023-07-24T02:16:11;2.95;;;2.20;;
52744;SDS011;38637;49.984;20.426;2023-07-24T02:18:41;3.40;;;2.05;;
52744;SDS011;38637;49.984;20.426;2023-07-24T02:21:07;2.28;;;2.08;;
52744;SDS011;38637;49.984;20.426;2023-07-24T02:23:33;2.20;;;2.00;;
52744;SDS011;38637;49.984;20.426;2023-07-24T02:28:24;4.23;;;2.30;;
52744;SDS011;38637;49.984;20.426;2023-07-24T02:30:50;2.30;;;2.10;;
52744;SDS011;38637;49.984;20.426;2023-07-24T02:33:17;2.92;;;2.38;;
52744;SDS011;38637;49.984;20.426;2023-07-24T02:35:42;1.83;;;1.73;;
52744;SDS011;38637;49.984;20.426;2023-07-24T02:38:08;6.70;;;1.97;;
52744;SDS011;38637;49.984;20.426;2023-07-24T02:40:33;3.37;;;1.80;;
52744;SDS011;38637;49.984;20.426;2023-07-24T02:42:59;2.30;;;1.80;;
52744;SDS011;38637;49.984;20.426;2023-07-24T02:45:24;7.03;;;1.90;;
52744;SDS011;38637;49.984;20.426;2023-07-24T02:47:49;2.67;;;2.33;;
52744;SDS011;38637;49.984;20.426;2023-07-24T02:50:15;2.57;;;2.10;;
52744;SDS011;38637;49.984;20.426;2023-07-24T02:52:40;3.50;;;1.70;;
52744;SDS011;38637;49.984;20.426;2023-07-24T02:55:05;4.23;;;2.17;;
52744;SDS011;38637;49.984;20.426;2023-07-24T02:57:31;7.80;;;2.57;;
52744;SDS011;38637;49.984;20.426;2023-07-24T02:59:56;3.08;;;2.13;;
52744;SDS011;38637;49.984;20.426;2023-07-24T03:02:22;2.60;;;2.13;;
52744;SDS011;38637;49.984;20.426;2023-07-24T03:04:47;2.93;;;2.63;;
52744;SDS011;38637;49.984;20.426;2023-07-24T03:07:12;2.47;;;2.27;;
52744;SDS011;38637;49.984;20.426;2023-07-24T03:09:38;2.73;;;2.10;;
52744;SDS011;38637;49.984;20.426;2023-07-24T03:12:03;5.20;;;2.40;;
52744;SDS011;38637;49.984;20.426;2023-07-24T03:14:28;4.40;;;1.87;;
52744;SDS011;38637;49.984;20.426;2023-07-24T03:16:54;2.67;;;2.13;;
52744;SDS011;38637;49.984;20.426;2023-07-24T03:19:19;3.20;;;2.30;;
52744;SDS011;38637;49.984;20.426;2023-07-24T03:21:45;4.18;;;2.20;;
52744;SDS011;38637;49.984;20.426;2023-07-24T03:24:10;3.07;;;2.30;;
52744;SDS011;38637;49.984;20.426;2023-07-24T03:26:36;2.30;;;2.10;;
52744;SDS011;38637;49.984;20.426;2023-07-24T03:29:01;6.80;;;2.13;;
52744;SDS011;38637;49.984;20.426;2023-07-24T03:31:26;7.07;;;2.33;;
52744;SDS011;38637;49.984;20.426;2023-07-24T03:33:51;2.20;;;2.00;;
52744;SDS011;38637;49.984;20.426;2023-07-24T03:36:17;4.70;;;2.33;;
52744;SDS011;38637;49.984;20.426;2023-07-24T03:38:42;3.07;;;2.30;;
52744;SDS011;38637;49.984;20.426;2023-07-24T03:41:07;4.73;;;2.40;;
52744;SDS011;38637;49.984;20.426;2023-07-24T03:43:33;6.30;;;2.60;;
52744;SDS011;38637;49.984;20.426;2023-07-24T03:45:58;3.57;;;2.37;;
52744;SDS011;38637;49.984;20.426;2023-07-24T03:48:23;3.10;;;2.80;;
52744;SDS011;38637;49.984;20.426;2023-07-24T03:50:57;5.13;;;3.60;;
52744;SDS011;38637;49.984;20.426;2023-07-24T03:53:24;4.30;;;3.72;;
52744;SDS011;38637;49.984;20.426;2023-07-24T03:55:49;3.67;;;3.37;;
52744;SDS011;38637;49.984;20.426;2023-07-24T03:58:14;8.03;;;3.67;;
52744;SDS011;38637;49.984;20.426;2023-07-24T04:00:39;4.83;;;3.80;;
52744;SDS011;38637;49.984;20.426;2023-07-24T04:03:05;4.30;;;3.30;;
52744;SDS011;38637;49.984;20.426;2023-07-24T04:05:30;4.90;;;3.23;;
52744;SDS011;38637;49.984;20.426;2023-07-24T04:07:56;5.97;;;3.23;;
52744;SDS011;38637;49.984;20.426;2023-07-24T04:10:21;6.43;;;3.20;;
52744;SDS011;38637;49.984;20.426;2023-07-24T04:12:46;3.97;;;3.47;;
52744;SDS011;38637;49.984;20.426;2023-07-24T04:15:12;4.07;;;3.53;;
52744;SDS011;38637;49.984;20.426;2023-07-24T04:17:37;7.37;;;3.47;;
52744;SDS011;38637;49.984;20.426;2023-07-24T04:20:05;4.53;;;2.90;;
52744;SDS011;38637;49.984;20.426;2023-07-24T04:22:30;3.38;;;2.75;;
52744;SDS011;38637;49.984;20.426;2023-07-24T04:24:56;3.73;;;2.53;;
52744;SDS011;38637;49.984;20.426;2023-07-24T04:27:21;3.57;;;2.80;;
52744;SDS011;38637;49.984;20.426;2023-07-24T04:29:46;2.20;;;2.00;;
52744;SDS011;38637;49.984;20.426;2023-07-24T04:32:11;4.70;;;2.57;;
52744;SDS011;38637;49.984;20.426;2023-07-24T04:34:37;5.87;;;2.40;;
52744;SDS011;38637;49.984;20.426;2023-07-24T04:37:02;2.30;;;2.07;;
52744;SDS011;38637;49.984;20.426;2023-07-24T04:39:28;2.53;;;2.30;;
52744;SDS011;38637;49.984;20.426;2023-07-24T04:41:53;4.83;;;2.37;;
52744;SDS011;38637;49.984;20.426;2023-07-24T04:44:18;8.83;;;2.97;;
52744;SDS011;38637;49.984;20.426;2023-07-24T04:46:43;3.47;;;2.80;;
52744;SDS011;38637;49.984;20.426;2023-07-24T04:49:09;2.40;;;2.20;;
52744;SDS011;38637;49.984;20.426;2023-07-24T04:51:34;4.13;;;2.20;;
52744;SDS011;38637;49.984;20.426;2023-07-24T04:53:59;5.50;;;2.20;;
52744;SDS011;38637;49.984;20.426;2023-07-24T04:56:25;2.90;;;2.40;;
52744;SDS011;38637;49.984;20.426;2023-07-24T04:58:50;5.27;;;2.97;;
52744;SDS011;38637;49.984;20.426;2023-07-24T05:01:15;5.23;;;2.90;;
52744;SDS011;38637;49.984;20.426;2023-07-24T05:03:40;7.27;;;2.63;;
52744;SDS011;38637;49.984;20.426;2023-07-24T05:06:06;3.67;;;2.07;;
52744;SDS011;38637;49.984;20.426;2023-07-24T05:08:31;2.53;;;2.27;;
52744;SDS011;38637;49.984;20.426;2023-07-24T05:10:57;4.05;;;2.33;;
52744;SDS011;38637;49.984;20.426;2023-07-24T05:13:23;3.97;;;2.97;;
52744;SDS011;38637;49.984;20.426;2023-07-24T05:15:49;6.15;;;2.25;;
52744;SDS011;38637;49.984;20.426;2023-07-24T05:18:14;4.93;;;2.60;;
52744;SDS011;38637;49.984;20.426;2023-07-24T05:20:44;4.43;;;2.53;;
52744;SDS011;38637;49.984;20.426;2023-07-24T05:23:11;3.83;;;2.40;;
52744;SDS011;38637;49.984;20.426;2023-07-24T05:25:37;8.50;;;2.80;;
52744;SDS011;38637;49.984;20.426;2023-07-24T05:28:02;3.50;;;2.43;;
52744;SDS011;38637;49.984;20.426;2023-07-24T05:30:27;3.97;;;2.90;;
52744;SDS011;38637;49.984;20.426;2023-07-24T05:32:53;2.95;;;2.50;;
52744;SDS011;38637;49.984;20.426;2023-07-24T05:35:18;3.83;;;3.07;;
52744;SDS011;38637;49.984;20.426;2023-07-24T05:37:44;4.03;;;3.03;;
52744;SDS011;38637;49.984;20.426;2023-07-24T05:40:09;3.57;;;2.50;;
52744;SDS011;38637;49.984;20.426;2023-07-24T05:42:34;3.27;;;2.67;;
52744;SDS011;38637;49.984;20.426;2023-07-24T05:45:06;4.93;;;3.50;;
52744;SDS011;38637;49.984;20.426;2023-07-24T05:47:32;6.03;;;3.35;;
52744;SDS011;38637;49.984;20.426;2023-07-24T05:49:57;8.03;;;4.10;;
52744;SDS011;38637;49.984;20.426;2023-07-24T05:52:23;5.63;;;2.90;;
52744;SDS011;38637;49.984;20.426;2023-07-24T05:54:48;6.97;;;2.83;;
52744;SDS011;38637;49.984;20.426;2023-07-24T05:57:13;3.17;;;2.67;;
52744;SDS011;38637;49.984;20.426;2023-07-24T05:59:38;4.27;;;2.40;;
52744;SDS011;38637;49.984;20.426;2023-07-24T06:02:04;3.37;;;3.07;;
52744;SDS011;38637;49.984;20.426;2023-07-24T06:04:30;3.55;;;3.25;;
52744;SDS011;38637;49.984;20.426;2023-07-24T06:06:55;3.97;;;3.37;;
52744;SDS011;38637;49.984;20.426;2023-07-24T06:09:20;4.53;;;3.33;;
52744;SDS011;38637;49.984;20.426;2023-07-24T06:11:46;5.80;;;3.27;;
52744;SDS011;38637;49.984;20.426;2023-07-24T06:14:11;7.23;;;2.80;;
52744;SDS011;38637;49.984;20.426;2023-07-24T06:16:36;9.87;;;3.40;;
52744;SDS011;38637;49.984;20.426;2023-07-24T06:19:02;4.77;;;3.03;;
52744;SDS011;38637;49.984;20.426;2023-07-24T06:21:27;4.87;;;3.40;;
52744;SDS011;38637;49.984;20.426;2023-07-24T06:23:52;7.33;;;4.03;;
52744;SDS011;38637;49.984;20.426;2023-07-24T06:26:17;8.00;;;3.33;;
52744;SDS011;38637;49.984;20.426;2023-07-24T06:28:43;3.60;;;3.00;;
52744;SDS011;38637;49.984;20.426;2023-07-24T06:31:08;4.90;;;3.47;;
52744;SDS011;38637;49.984;20.426;2023-07-24T06:33:33;5.43;;;3.70;;
52744;SDS011;38637;49.984;20.426;2023-07-24T06:35:59;4.60;;;3.07;;
52744;SDS011;38637;49.984;20.426;2023-07-24T06:38:24;10.07;;;3.57;;
52744;SDS011;38637;49.984;20.426;2023-07-24T06:40:50;4.13;;;3.53;;
52744;SDS011;38637;49.984;20.426;2023-07-24T06:43:15;3.67;;;3.28;;
52744;SDS011;38637;49.984;20.426;2023-07-24T06:45:40;6.33;;;3.23;;
52744;SDS011;38637;49.984;20.426;2023-07-24T06:48:06;6.70;;;3.20;;
52744;SDS011;38637;49.984;20.426;2023-07-24T06:50:31;3.40;;;3.10;;
52744;SDS011;38637;49.984;20.426;2023-07-24T06:52:56;4.17;;;2.90;;
52744;SDS011;38637;49.984;20.426;2023-07-24T06:55:22;6.50;;;3.17;;
52744;SDS011;38637;49.984;20.426;2023-07-24T06:57:47;4.10;;;2.80;;
52744;SDS011;38637;49.984;20.426;2023-07-24T07:00:13;5.03;;;3.27;;
52744;SDS011;38637;49.984;20.426;2023-07-24T07:02:38;7.70;;;3.50;;
52744;SDS011;38637;49.984;20.426;2023-07-24T07:05:04;7.75;;;3.60;;
52744;SDS011;38637;49.984;20.426;2023-07-24T07:07:30;10.10;;;3.13;;
52744;SDS011;38637;49.984;20.426;2023-07-24T07:09:55;8.52;;;3.33;;
52744;SDS011;38637;49.984;20.426;2023-07-24T07:12:21;4.63;;;3.40;;
52744;SDS011;38637;49.984;20.426;2023-07-24T07:14:46;8.37;;;3.27;;
52744;SDS011;38637;49.984;20.426;2023-07-24T07:17:11;4.43;;;3.10;;
52744;SDS011;38637;49.984;20.426;2023-07-24T07:19:36;4.23;;;3.10;;
52744;SDS011;38637;49.984;20.426;2023-07-24T07:22:02;4.40;;;3.65;;
52744;SDS011;38637;49.984;20.426;2023-07-24T07:24:27;3.83;;;3.28;;
52744;SDS011;38637;49.984;20.426;2023-07-24T07:26:53;13.80;;;3.83;;
52744;SDS011;38637;49.984;20.426;2023-07-24T07:29:18;9.07;;;4.35;;
52744;SDS011;38637;49.984;20.426;2023-07-24T07:31:44;6.93;;;3.50;;
52744;SDS011;38637;49.984;20.426;2023-07-24T07:34:09;5.30;;;3.23;;
52744;SDS011;38637;49.984;20.426;2023-07-24T07:36:34;3.50;;;2.90;;
52744;SDS011;38637;49.984;20.426;2023-07-24T07:38:59;5.90;;;3.87;;
52744;SDS011;38637;49.984;20.426;2023-07-24T07:41:25;9.47;;;3.67;;
52744;SDS011;38637;49.984;20.426;2023-07-24T07:43:50;4.70;;;3.10;;
52744;SDS011;38637;49.984;20.426;2023-07-24T07:46:15;4.13;;;3.50;;
52744;SDS011;38637;49.984;20.426;2023-07-24T07:48:41;5.37;;;3.60;;
52744;SDS011;38637;49.984;20.426;2023-07-24T07:51:06;3.35;;;3.05;;
52744;SDS011;38637;49.984;20.426;2023-07-24T07:53:32;4.00;;;3.53;;
52744;SDS011;38637;49.984;20.426;2023-07-24T07:55:57;7.13;;;3.30;;
52744;SDS011;38637;49.984;20.426;2023-07-24T07:58:23;5.93;;;3.13;;
52744;SDS011;38637;49.984;20.426;2023-07-24T08:00:49;3.90;;;2.88;;
52744;SDS011;38637;49.984;20.426;2023-07-24T08:03:14;8.75;;;3.60;;
52744;SDS011;38637;49.984;20.426;2023-07-24T08:05:40;3.27;;;2.87;;
52744;SDS011;38637;49.984;20.426;2023-07-24T08:08:05;4.00;;;3.33;;
52744;SDS011;38637;49.984;20.426;2023-07-24T08:10:30;3.70;;;3.23;;
52744;SDS011;38637;49.984;20.426;2023-07-24T08:12:55;3.60;;;3.20;;
52744;SDS011;38637;49.984;20.426;2023-07-24T08:15:21;4.87;;;2.97;;
52744;SDS011;38637;49.984;20.426;2023-07-24T08:17:46;5.13;;;3.65;;
52744;SDS011;38637;49.984;20.426;2023-07-24T08:20:11;9.50;;;3.47;;
52744;SDS011;38637;49.984;20.426;2023-07-24T08:22:37;6.13;;;3.60;;
52744;SDS011;38637;49.984;20.426;2023-07-24T08:25:02;9.77;;;3.33;;
52744;SDS011;38637;49.984;20.426;2023-07-24T08:27:28;4.82;;;3.33;;
52744;SDS011;38637;49.984;20.426;2023-07-24T08:29:53;5.13;;;4.30;;
52744;SDS011;38637;49.984;20.426;2023-07-24T08:32:19;7.00;;;2.97;;
52744;SDS011;38637;49.984;20.426;2023-07-24T08:37:11;8.13;;;3.57;;
52744;SDS011;38637;49.984;20.426;2023-07-24T08:39:36;3.95;;;3.38;;
52744;SDS011;38637;49.984;20.426;2023-07-24T08:42:12;8.20;;;3.50;;
52744;SDS011;38637;49.984;20.426;2023-07-24T08:44:38;4.78;;;3.72;;
52744;SDS011;38637;49.984;20.426;2023-07-24T08:47:03;5.13;;;3.60;;
52744;SDS011;38637;49.984;20.426;2023-07-24T08:51:56;8.35;;;3.97;;
52744;SDS011;38637;49.984;20.426;2023-07-24T08:54:22;6.85;;;3.92;;
52744;SDS011;38637;49.984;20.426;2023-07-24T08:56:50;4.25;;;3.58;;
52744;SDS011;38637;49.984;20.426;2023-07-24T08:59:16;6.72;;;4.10;;
52744;SDS011;38637;49.984;20.426;2023-07-24T09:01:43;7.60;;;4.13;;
52744;SDS011;38637;49.984;20.426;2023-07-24T09:04:08;5.03;;;3.60;;
52744;SDS011;38637;49.984;20.426;2023-07-24T09:06:34;4.40;;;4.00;;
52744;SDS011;38637;49.984;20.426;2023-07-24T09:09:00;3.83;;;3.42;;
52744;SDS011;38637;49.984;20.426;2023-07-24T09:13:51;4.70;;;4.20;;
52744;SDS011;38637;49.984;20.426;2023-07-24T09:16:23;7.63;;;4.30;;
52744;SDS011;38637;49.984;20.426;2023-07-24T09:18:49;4.18;;;3.70;;
52744;SDS011;38637;49.984;20.426;2023-07-24T09:21:31;6.10;;;3.90;;
52744;SDS011;38637;49.984;20.426;2023-07-24T09:23:57;5.82;;;3.58;;
52744;SDS011;38637;49.984;20.426;2023-07-24T09:28:51;7.20;;;3.80;;
52744;SDS011;38637;49.984;20.426;2023-07-24T09:31:18;4.70;;;3.88;;
52744;SDS011;38637;49.984;20.426;2023-07-24T09:33:43;5.30;;;3.88;;
52744;SDS011;38637;49.984;20.426;2023-07-24T09:36:09;3.33;;;3.03;;
52744;SDS011;38637;49.984;20.426;2023-07-24T09:38:39;5.47;;;3.35;;
52744;SDS011;38637;49.984;20.426;2023-07-24T09:41:05;7.47;;;3.90;;
52744;SDS011;38637;49.984;20.426;2023-07-24T09:45:57;4.43;;;4.03;;
52744;SDS011;38637;49.984;20.426;2023-07-24T09:48:24;5.82;;;4.10;;
52744;SDS011;38637;49.984;20.426;2023-07-24T09:50:57;4.72;;;3.80;;
52744;SDS011;38637;49.984;20.426;2023-07-24T09:53:29;7.35;;;3.90;;
52744;SDS011;38637;49.984;20.426;2023-07-24T09:55:59;5.03;;;3.95;;
52744;SDS011;38637;49.984;20.426;2023-07-24T09:58:26;6.97;;;3.88;;
52744;SDS011;38637;49.984;20.426;2023-07-24T10:00:52;7.25;;;3.45;;
52744;SDS011;38637;49.984;20.426;2023-07-24T10:03:18;5.20;;;4.03;;
52744;SDS011;38637;49.984;20.426;2023-07-24T10:05:45;7.22;;;4.18;;
52744;SDS011;38637;49.984;20.426;2023-07-24T10:08:12;8.85;;;3.83;;
52744;SDS011;38637;49.984;20.426;2023-07-24T10:10:39;6.38;;;3.65;;
52744;SDS011;38637;49.984;20.426;2023-07-24T10:13:05;5.13;;;3.53;;
52744;SDS011;38637;49.984;20.426;2023-07-24T10:15:32;5.00;;;3.63;;
52744;SDS011;38637;49.984;20.426;2023-07-24T10:18:05;5.70;;;4.00;;
52744;SDS011;38637;49.984;20.426;2023-07-24T10:20:35;6.35;;;4.18;;
52744;SDS011;38637;49.984;20.426;2023-07-24T10:23:04;7.60;;;4.32;;
52744;SDS011;38637;49.984;20.426;2023-07-24T10:25:32;4.97;;;4.07;;
52744;SDS011;38637;49.984;20.426;2023-07-24T10:28:05;15.80;;;5.57;;
52744;SDS011;38637;49.984;20.426;2023-07-24T10:30:36;4.78;;;4.10;;
52744;SDS011;38637;49.984;20.426;2023-07-24T10:35:48;5.40;;;4.78;;
52744;SDS011;38637;49.984;20.426;2023-07-24T10:38:16;7.57;;;4.10;;
52744;SDS011;38637;49.984;20.426;2023-07-24T10:40:42;8.98;;;4.78;;
52744;SDS011;38637;49.984;20.426;2023-07-24T10:43:10;12.15;;;4.50;;
52744;SDS011;38637;49.984;20.426;2023-07-24T10:45:38;6.05;;;4.35;;
52744;SDS011;38637;49.984;20.426;2023-07-24T10:48:04;13.82;;;5.30;;
52744;SDS011;38637;49.984;20.426;2023-07-24T10:50:36;10.88;;;5.53;;
52744;SDS011;38637;49.984;20.426;2023-07-24T10:53:09;15.18;;;4.97;;
52744;SDS011;38637;49.984;20.426;2023-07-24T10:55:35;11.00;;;4.82;;
52744;SDS011;38637;49.984;20.426;2023-07-24T10:58:01;9.40;;;4.40;;
52744;SDS011;38637;49.984;20.426;2023-07-24T11:00:26;12.32;;;4.90;;
52744;SDS011;38637;49.984;20.426;2023-07-24T11:05:21;7.13;;;4.45;;
52744;SDS011;38637;49.984;20.426;2023-07-24T11:07:47;6.90;;;3.90;;
52744;SDS011;38637;49.984;20.426;2023-07-24T11:12:39;5.85;;;4.68;;
52744;SDS011;38637;49.984;20.426;2023-07-24T11:15:05;6.13;;;4.00;;
52744;SDS011;38637;49.984;20.426;2023-07-24T11:17:37;7.72;;;4.22;;
52744;SDS011;38637;49.984;20.426;2023-07-24T11:20:15;8.15;;;5.25;;
52744;SDS011;38637;49.984;20.426;2023-07-24T11:22:41;6.30;;;5.17;;
52744;SDS011;38637;49.984;20.426;2023-07-24T11:25:08;5.20;;;4.28;;
52744;SDS011;38637;49.984;20.426;2023-07-24T11:27:44;5.78;;;5.18;;
52744;SDS011;38637;49.984;20.426;2023-07-24T11:30:10;8.57;;;5.38;;
52744;SDS011;38637;49.984;20.426;2023-07-24T11:32:40;6.57;;;4.68;;
52744;SDS011;38637;49.984;20.426;2023-07-24T11:35:05;11.20;;;5.07;;
52744;SDS011;38637;49.984;20.426;2023-07-24T11:37:32;8.75;;;4.88;;
52744;SDS011;38637;49.984;20.426;2023-07-24T11:39:58;5.90;;;4.40;;
52744;SDS011;38637;49.984;20.426;2023-07-24T11:42:25;13.32;;;4.47;;
52744;SDS011;38637;49.984;20.426;2023-07-24T11:44:52;8.82;;;5.15;;
52744;SDS011;38637;49.984;20.426;2023-07-24T11:47:17;7.15;;;4.30;;
52744;SDS011;38637;49.984;20.426;2023-07-24T11:49:43;14.48;;;4.60;;
52744;SDS011;38637;49.984;20.426;2023-07-24T11:52:13;5.22;;;4.72;;
52744;SDS011;38637;49.984;20.426;2023-07-24T11:54:38;10.00;;;4.25;;
52744;SDS011;38637;49.984;20.426;2023-07-24T11:57:14;5.70;;;4.88;;
52744;SDS011;38637;49.984;20.426;2023-07-24T11:59:40;5.85;;;4.65;;
52744;SDS011;38637;49.984;20.426;2023-07-24T12:04:34;4.90;;;4.35;;
52744;SDS011;38637;49.984;20.426;2023-07-24T12:06:59;13.23;;;6.67;;
52744;SDS011;38637;49.984;20.426;2023-07-24T12:09:29;6.97;;;4.82;;
52744;SDS011;38637;49.984;20.426;2023-07-24T12:11:57;7.65;;;4.65;;
52744;SDS011;38637;49.984;20.426;2023-07-24T12:14:23;5.78;;;5.00;;
52744;SDS011;38637;49.984;20.426;2023-07-24T12:16:48;6.00;;;5.37;;
52744;SDS011;38637;49.984;20.426;2023-07-24T12:21:39;4.90;;;4.40;;
52744;SDS011;38637;49.984;20.426;2023-07-24T12:26:30;8.38;;;5.05;;
52744;SDS011;38637;49.984;20.426;2023-07-24T12:31:20;5.70;;;5.20;;
52744;SDS011;38637;49.984;20.426;2023-07-24T12:36:11;5.40;;;4.90;;
52744;SDS011;38637;49.984;20.426;2023-07-24T12:41:01;5.73;;;4.70;;
52744;SDS011;38637;49.984;20.426;2023-07-24T12:45:52;7.10;;;4.73;;
52744;SDS011;38637;49.984;20.426;2023-07-24T12:50:42;7.00;;;5.10;;
52744;SDS011;38637;49.984;20.426;2023-07-24T12:53:08;6.53;;;5.10;;
52744;SDS011;38637;49.984;20.426;2023-07-24T12:55:33;6.37;;;5.17;;
52744;SDS011;38637;49.984;20.426;2023-07-24T13:00:23;6.67;;;5.13;;
52744;SDS011;38637;49.984;20.426;2023-07-24T13:05:14;5.43;;;4.77;;
52744;SDS011;38637;49.984;20.426;2023-07-24T13:10:05;7.33;;;5.47;;
52744;SDS011;38637;49.984;20.426;2023-07-24T13:14:56;8.27;;;5.60;;
52744;SDS011;38637;49.984;20.426;2023-07-24T13:19:46;6.80;;;5.77;;
52744;SDS011;38637;49.984;20.426;2023-07-24T13:24:37;5.50;;;5.00;;
52744;SDS011;38637;49.984;20.426;2023-07-24T13:27:02;7.00;;;5.43;;
52744;SDS011;38637;49.984;20.426;2023-07-24T13:31:54;6.33;;;5.20;;
52744;SDS011;38637;49.984;20.426;2023-07-24T13:36:45;10.07;;;4.82;;
52744;SDS011;38637;49.984;20.426;2023-07-24T13:39:12;8.73;;;5.60;;
52744;SDS011;38637;49.984;20.426;2023-07-24T13:41:37;8.73;;;6.15;;
52744;SDS011;38637;49.984;20.426;2023-07-24T13:46:28;11.85;;;6.22;;
52744;SDS011;38637;49.984;20.426;2023-07-24T13:48:54;5.60;;;5.10;;
52744;SDS011;38637;49.984;20.426;2023-07-24T13:51:19;6.70;;;5.97;;
52744;SDS011;38637;49.984;20.426;2023-07-24T13:56:12;10.20;;;7.22;;
52744;SDS011;38637;49.984;20.426;2023-07-24T13:58:39;12.80;;;7.43;;
52744;SDS011;38637;49.984;20.426;2023-07-24T14:01:04;10.30;;;6.27;;
52744;SDS011;38637;49.984;20.426;2023-07-24T14:03:32;6.53;;;5.60;;
52744;SDS011;38637;49.984;20.426;2023-07-24T14:05:57;6.07;;;5.47;;
52744;SDS011;38637;49.984;20.426;2023-07-24T14:08:22;8.15;;;5.35;;
52744;SDS011;38637;49.984;20.426;2023-07-24T14:13:13;10.70;;;5.67;;
52744;SDS011;38637;49.984;20.426;2023-07-24T14:18:04;7.43;;;6.37;;
52744;SDS011;38637;49.984;20.426;2023-07-24T14:22:54;8.70;;;5.87;;
52744;SDS011;38637;49.984;20.426;2023-07-24T14:25:19;6.70;;;6.00;;
52744;SDS011;38637;49.984;20.426;2023-07-24T14:30:10;9.53;;;6.00;;
52744;SDS011;38637;49.984;20.426;2023-07-24T14:35:01;6.15;;;5.55;;
52744;SDS011;38637;49.984;20.426;2023-07-24T14:39:51;10.97;;;5.73;;
52744;SDS011;38637;49.984;20.426;2023-07-24T14:44:42;8.35;;;5.30;;
52744;SDS011;38637;49.984;20.426;2023-07-24T14:49:33;8.30;;;6.30;;
52744;SDS011;38637;49.984;20.426;2023-07-24T14:51:58;8.38;;;5.85;;
52744;SDS011;38637;49.984;20.426;2023-07-24T14:54:24;8.02;;;5.78;;
52744;SDS011;38637;49.984;20.426;2023-07-24T14:59:14;6.95;;;5.60;;
52744;SDS011;38637;49.984;20.426;2023-07-24T15:01:39;5.80;;;4.93;;
52744;SDS011;38637;49.984;20.426;2023-07-24T15:06:30;7.83;;;5.90;;
52744;SDS011;38637;49.984;20.426;2023-07-24T15:11:22;8.80;;;6.10;;
52744;SDS011;38637;49.984;20.426;2023-07-24T15:13:57;9.50;;;6.13;;
52744;SDS011;38637;49.984;20.426;2023-07-24T15:16:22;7.45;;;5.60;;
52744;SDS011;38637;49.984;20.426;2023-07-24T15:18:48;6.97;;;6.28;;
52744;SDS011;38637;49.984;20.426;2023-07-24T15:21:13;8.53;;;6.30;;
52744;SDS011;38637;49.984;20.426;2023-07-24T15:23:38;6.43;;;5.57;;
52744;SDS011;38637;49.984;20.426;2023-07-24T15:26:04;8.77;;;5.65;;
52744;SDS011;38637;49.984;20.426;2023-07-24T15:30:54;6.93;;;5.87;;
52744;SDS011;38637;49.984;20.426;2023-07-24T15:35:45;9.33;;;5.83;;
52744;SDS011;38637;49.984;20.426;2023-07-24T15:40:35;9.00;;;5.90;;
52744;SDS011;38637;49.984;20.426;2023-07-24T15:43:02;8.27;;;5.90;;
52744;SDS011;38637;49.984;20.426;2023-07-24T15:45:27;9.13;;;5.55;;
52744;SDS011;38637;49.984;20.426;2023-07-24T15:50:18;6.57;;;5.83;;
52744;SDS011;38637;49.984;20.426;2023-07-24T15:52:43;9.33;;;5.60;;
52744;SDS011;38637;49.984;20.426;2023-07-24T15:55:08;8.83;;;5.37;;
52744;SDS011;38637;49.984;20.426;2023-07-24T15:57:35;7.07;;;5.57;;
52744;SDS011;38637;49.984;20.426;2023-07-24T16:00:00;7.13;;;5.20;;
52744;SDS011;38637;49.984;20.426;2023-07-24T16:02:25;7.55;;;6.15;;
52744;SDS011;38637;49.984;20.426;2023-07-24T16:07:17;9.18;;;5.70;;
52744;SDS011;38637;49.984;20.426;2023-07-24T16:09:42;6.75;;;5.55;;
52744;SDS011;38637;49.984;20.426;2023-07-24T16:14:33;12.70;;;5.80;;
52744;SDS011;38637;49.984;20.426;2023-07-24T16:16:58;8.93;;;5.97;;
52744;SDS011;38637;49.984;20.426;2023-07-24T16:21:49;9.63;;;5.50;;